Time;durP1;ratioP1;P1;durP2;ratioP2;P2;SDS_P1;SDS_P2;PMS_P1;PMS_P2;Temp;Humidity;BMP_temperature;BMP_pressure;BME280_temperature;BME280_humidity;BME280_pressure;Samples;Min_cycle;Max_cycle;Signal;HPM_P1;HPM_P2
2022/06/03 00:01:12;;;;;;;7.43;4.40;;;11.10;82.70;;;;;;6158955;23;20824;-79
2022/06/03 00:04:00;;;;;;;6.30;4.45;;;11.00;82.40;;;;;;6157743;23;20097;-79
2022/06/03 00:06:35;;;;;;;10.65;4.70;;;11.00;82.20;;;;;;6158546;23;20030;-79
2022/06/03 00:09:42;;;;;;;8.43;4.60;;;11.00;82.30;;;;;;6159463;23;20040;-79
2022/06/03 00:12:26;;;;;;;7.45;4.60;;;11.10;82.00;;;;;;6159307;23;20055;-78
2022/06/03 00:15:14;;;;;;;8.93;5.03;;;11.10;82.20;;;;;;6156531;23;20037;-79
2022/06/03 00:18:18;;;;;;;7.55;4.47;;;11.10;82.30;;;;;;6158118;23;20034;-79
2022/06/03 00:20:59;;;;;;;6.47;4.57;;;11.10;82.00;;;;;;6158155;23;20033;-80
2022/06/03 00:23:39;;;;;;;6.78;4.57;;;11.10;81.80;;;;;;6158223;23;20030;-79
2022/06/03 00:26:17;;;;;;;6.43;4.50;;;11.10;81.50;;;;;;6158357;23;20036;-79
2022/06/03 00:28:50;;;;;;;7.25;4.32;;;11.10;81.60;;;;;;6158865;23;20106;-81
2022/06/03 00:31:19;;;;;;;8.73;4.35;;;11.10;81.50;;;;;;6158221;23;20033;-78
2022/06/03 00:34:11;;;;;;;7.40;4.65;;;11.10;81.60;;;;;;6157924;23;20033;-78
2022/06/03 00:36:43;;;;;;;7.07;4.00;;;11.00;81.20;;;;;;6157977;23;20121;-81
2022/06/03 00:39:47;;;;;;;7.80;4.20;;;11.00;81.40;;;;;;6159038;23;20030;-80
2022/06/03 00:42:47;;;;;;;5.72;4.00;;;11.00;81.30;;;;;;6157755;23;20117;-80
2022/06/03 00:45:36;;;;;;;9.00;4.07;;;10.90;81.20;;;;;;6158551;23;20030;-81
2022/06/03 00:48:06;;;;;;;6.05;4.03;;;10.90;81.70;;;;;;6159039;23;20118;-81
2022/06/03 00:50:51;;;;;;;6.63;4.13;;;10.90;81.50;;;;;;6158262;23;20038;-81
2022/06/03 00:53:34;;;;;;;6.97;4.43;;;10.80;82.00;;;;;;6158543;23;20715;-81
2022/06/03 00:56:31;;;;;;;7.57;4.20;;;10.80;81.60;;;;;;6157341;23;20025;-81
2022/06/03 00:59:55;;;;;;;10.02;3.95;;;10.70;82.00;;;;;;6157538;23;20026;-81
2022/06/03 01:02:43;;;;;;;7.10;4.07;;;10.70;81.80;;;;;;6126241;23;20838;-80
2022/06/03 01:05:40;;;;;;;6.13;4.05;;;10.70;82.40;;;;;;6125753;23;20041;-80
2022/06/03 01:08:24;;;;;;;6.03;4.30;;;10.60;82.00;;;;;;6125136;23;20023;-80
2022/06/03 01:10:58;;;;;;;;;;;10.60;82.30;;;;;;6125524;23;20038;-78
2022/06/03 01:13:43;;;;;;;;;;;10.60;82.30;;;;;;6126512;23;19995;-78
2022/06/03 01:16:21;;;;;;;6.72;4.57;;;10.50;82.50;;;;;;6125908;23;19988;-80
2022/06/03 01:19:30;;;;;;;6.18;4.35;;;10.50;82.40;;;;;;6125629;23;20026;-80
2022/06/03 01:22:10;;;;;;;9.02;4.47;;;10.50;82.30;;;;;;6009938;23;20063;-80
2022/06/03 01:24:49;;;;;;;5.20;4.00;;;10.50;82.30;;;;;;5985891;23;20028;-79
2022/06/03 01:27:21;;;;;;;8.02;4.30;;;10.50;82.30;;;;;;6010420;23;20028;-80
2022/06/03 01:30:16;;;;;;;7.97;4.05;;;10.50;82.40;;;;;;6009825;23;20028;-79
2022/06/03 01:32:53;;;;;;;6.63;4.10;;;10.50;82.90;;;;;;6026668;23;20051;-79
2022/06/03 01:35:50;;;;;;;7.85;4.10;;;10.50;82.70;;;;;;6067829;23;20038;-79
2022/06/03 01:38:41;;;;;;;7.20;4.32;;;10.50;82.40;;;;;;6065528;23;20027;-79
2022/06/03 01:41:19;;;;;;;8.95;4.10;;;10.50;82.20;;;;;;6067057;23;20067;-79
2022/06/03 01:44:00;;;;;;;7.95;4.07;;;10.50;82.10;;;;;;6067685;23;20027;-79
2022/06/03 01:46:50;;;;;;;10.43;3.85;;;10.50;82.20;;;;;;6066567;23;20553;-79
2022/06/03 01:49:41;;;;;;;8.05;4.00;;;10.50;81.90;;;;;;6064637;23;20023;-79
2022/06/03 01:52:10;;;;;;;6.90;4.32;;;10.60;81.70;;;;;;6042835;23;20034;-79
2022/06/03 01:54:45;;;;;;;4.97;3.65;;;10.60;81.80;;;;;;6066598;23;20148;-79
2022/06/03 01:57:41;;;;;;;6.57;4.03;;;10.60;81.10;;;;;;6067661;23;20032;-79
2022/06/03 02:00:31;;;;;;;5.43;3.60;;;10.70;80.70;;;;;;6153127;23;20022;-79
2022/06/03 02:03:13;;;;;;;11.75;4.38;;;10.70;80.80;;;;;;6158073;23;20030;-79
2022/06/03 02:05:51;;;;;;;6.45;3.65;;;10.70;80.40;;;;;;6158256;23;20715;-79
2022/06/03 02:08:57;;;;;;;6.20;3.85;;;10.80;80.30;;;;;;6157710;23;20460;-80
2022/06/03 02:11:29;;;;;;;6.10;3.38;;;10.80;79.70;;;;;;6158121;23;20032;-79
2022/06/03 02:14:23;;;;;;;5.70;3.60;;;10.80;79.40;;;;;;6157566;23;20029;-79
2022/06/03 02:16:56;;;;;;;5.63;3.63;;;10.90;79.40;;;;;;6157975;23;20794;-79
2022/06/03 02:20:00;;;;;;;5.75;3.63;;;10.90;79.10;;;;;;6157459;23;20105;-79
2022/06/03 02:22:47;;;;;;;7.63;3.83;;;10.90;79.60;;;;;;6157692;23;20109;-79
2022/06/03 02:25:41;;;;;;;7.40;3.22;;;10.90;79.30;;;;;;6157632;23;20032;-79
2022/06/03 02:28:17;;;;;;;;;;;10.90;79.30;;;;;;6158631;23;20029;-79
2022/06/03 02:31:09;;;;;;;9.77;3.08;;;10.90;78.90;;;;;;6158055;23;20351;-79
2022/06/03 02:33:42;;;;;;;7.03;3.47;;;10.90;78.90;;;;;;6157588;23;20074;-79
2022/06/03 02:36:11;;;;;;;6.22;3.65;;;10.90;79.00;;;;;;6157653;23;20028;-79
2022/06/03 02:39:04;;;;;;;5.13;3.33;;;10.90;79.10;;;;;;6157497;23;20033;-79
2022/06/03 02:41:49;;;;;;;5.35;3.33;;;10.90;78.70;;;;;;6124909;23;20038;-79
2022/06/03 02:44:40;;;;;;;6.53;3.65;;;10.90;78.90;;;;;;6100774;23;20026;-79
2022/06/03 02:47:57;;;;;;;6.93;3.95;;;10.90;78.80;;;;;;6125197;23;20030;-79
2022/06/03 02:50:34;;;;;;;7.05;3.55;;;10.80;78.70;;;;;;6125451;23;20543;-79
2022/06/03 02:53:22;;;;;;;6.35;3.70;;;10.90;78.70;;;;;;6126022;23;20072;-79
2022/06/03 02:56:21;;;;;;;11.70;3.47;;;10.90;79.00;;;;;;6124751;23;20033;-79
2022/06/03 02:59:12;;;;;;;7.43;3.67;;;10.90;78.60;;;;;;6125406;23;20050;-79
2022/06/03 03:01:54;;;;;;;5.63;3.17;;;10.80;78.80;;;;;;6124974;23;20220;-79
2022/06/03 03:04:35;;;;;;;6.57;3.38;;;10.90;78.50;;;;;;6125359;23;20053;-79
2022/06/03 03:07:31;;;;;;;10.35;3.58;;;10.90;78.70;;;;;;6125872;23;20037;-79
2022/06/03 03:10:14;;;;;;;7.60;3.40;;;10.90;78.60;;;;;;6124353;23;20776;-79
2022/06/03 03:13:15;;;;;;;7.35;3.72;;;10.90;79.10;;;;;;6100414;23;20030;-79
2022/06/03 03:16:00;;;;;;;6.78;3.80;;;10.80;78.80;;;;;;6125116;23;20767;-79
2022/06/03 03:19:06;;;;;;;9.10;3.70;;;10.90;78.80;;;;;;6139181;23;20033;-79
2022/06/03 03:21:55;;;;;;;4.75;3.20;;;10.90;78.80;;;;;;6156442;23;20105;-79
2022/06/03 03:24:33;;;;;;;8.95;4.00;;;10.90;78.60;;;;;;6157457;23;20037;-79
2022/06/03 03:27:29;;;;;;;6.07;3.78;;;10.90;78.60;;;;;;6157470;23;20679;-79
2022/06/03 03:30:22;;;;;;;8.65;3.80;;;10.90;78.80;;;;;;6157603;23;20030;-79
2022/06/03 03:33:17;;;;;;;5.13;3.83;;;10.90;78.50;;;;;;6157194;23;20028;-79
2022/06/03 03:36:04;;;;;;;7.18;3.70;;;11.00;78.80;;;;;;6157881;23;20026;-79
2022/06/03 03:38:49;;;;;;;8.80;3.90;;;11.00;78.70;;;;;;6158398;23;20468;-79
2022/06/03 03:41:54;;;;;;;6.35;3.67;;;11.00;78.60;;;;;;6157899;23;20030;-79
2022/06/03 03:44:42;;;;;;;8.68;3.80;;;11.00;78.70;;;;;;6158867;23;20022;-79
2022/06/03 03:47:46;;;;;;;5.35;3.83;;;11.10;78.60;;;;;;6161212;23;20018;-79
2022/06/03 03:50:44;;;;;;;8.75;4.07;;;11.10;78.80;;;;;;6160077;23;20065;-79
2022/06/03 03:53:52;;;;;;;5.30;3.67;;;11.10;78.40;;;;;;6162624;23;20030;-80
2022/06/03 03:56:50;;;;;;;6.65;4.15;;;11.00;78.40;;;;;;6130245;23;20029;-80
2022/06/03 03:59:39;;;;;;;9.15;3.83;;;11.00;78.50;;;;;;6130907;23;20874;-79
2022/06/03 04:02:24;;;;;;;8.70;4.30;;;11.00;79.00;;;;;;6131545;23;20030;-79
2022/06/03 04:05:20;;;;;;;10.27;4.43;;;11.00;78.90;;;;;;6106674;23;20177;-79
2022/06/03 04:07:50;;;;;;;7.78;4.20;;;11.00;79.80;;;;;;6130508;23;20459;-79
2022/06/03 04:11:03;;;;;;;6.03;4.10;;;11.00;79.60;;;;;;6130707;23;20029;-79
2022/06/03 04:13:38;;;;;;;7.50;4.30;;;10.90;79.70;;;;;;6015930;23;20080;-79
2022/06/03 04:16:32;;;;;;;9.07;4.45;;;10.90;80.00;;;;;;6016287;23;20030;-79
2022/06/03 04:19:17;;;;;;;8.18;4.40;;;10.80;80.00;;;;;;6017227;23;20034;-79
2022/06/03 04:22:14;;;;;;;7.82;4.45;;;10.80;80.30;;;;;;6016607;23;20067;-79
2022/06/03 04:25:08;;;;;;;8.63;4.95;;;10.80;80.50;;;;;;6016053;23;20028;-79
2022/06/03 04:28:02;;;;;;;8.30;5.03;;;10.70;80.40;;;;;;6056414;23;20763;-79
2022/06/03 04:30:33;;;;;;;11.55;4.85;;;10.70;80.40;;;;;;6075600;23;20042;-79
2022/06/03 04:33:23;;;;;;;9.25;5.00;;;10.70;81.20;;;;;;6050907;23;20019;-79
2022/06/03 04:36:25;;;;;;;9.98;4.97;;;10.70;81.00;;;;;;6076625;23;20019;-79
2022/06/03 04:39:13;;;;;;;8.00;4.30;;;10.70;81.20;;;;;;6075927;23;20031;-79
2022/06/03 04:42:24;;;;;;;7.80;5.05;;;10.70;81.70;;;;;;6075213;23;20022;-80
2022/06/03 04:45:39;;;;;;;6.15;4.47;;;10.70;80.80;;;;;;6138047;23;20029;-79
2022/06/03 04:48:15;;;;;;;9.77;5.22;;;10.70;80.70;;;;;;6080813;23;20688;-79
2022/06/03 04:50:48;;;;;;;10.00;5.57;;;10.80;80.80;;;;;;6080496;23;20029;-79
2022/06/03 04:54:12;;;;;;;12.52;5.07;;;10.80;80.80;;;;;;6105152;23;20030;-79
2022/06/03 04:57:20;;;;;;;7.78;4.95;;;10.80;80.80;;;;;;6103944;23;20023;-80
2022/06/03 05:00:21;;;;;;;7.53;5.15;;;10.90;80.60;;;;;;6077519;23;20018;-80
2022/06/03 05:03:08;;;;;;;7.93;5.20;;;10.90;80.40;;;;;;6080560;23;20099;-79
2022/06/03 05:05:44;;;;;;;9.27;4.78;;;11.00;80.20;;;;;;6103962;23;20127;-79
2022/06/03 05:08:29;;;;;;;13.50;5.38;;;11.10;79.90;;;;;;6078083;23;20815;-79
2022/06/03 05:11:23;;;;;;;13.43;5.78;;;11.20;80.20;;;;;;6101665;23;20027;-79
2022/06/03 05:13:59;;;;;;;10.43;5.25;;;11.20;79.90;;;;;;6103407;23;20082;-79
2022/06/03 05:17:00;;;;;;;10.25;4.95;;;11.30;80.00;;;;;;6103826;23;20023;-79
2022/06/03 05:19:51;;;;;;;7.28;5.13;;;11.30;79.70;;;;;;6079589;23;20034;-79
2022/06/03 05:22:44;;;;;;;8.68;5.05;;;11.40;79.00;;;;;;6100745;23;20098;-79
2022/06/03 05:25:30;;;;;;;9.35;5.05;;;11.50;77.90;;;;;;6135534;23;20085;-80
2022/06/03 05:28:34;;;;;;;9.32;4.90;;;11.60;77.80;;;;;;6161343;23;20018;-79
2022/06/03 05:31:10;;;;;;;;;;;11.70;77.10;;;;;;6158527;23;20022;-79
2022/06/03 05:34:16;;;;;;;8.82;4.32;;;11.80;76.30;;;;;;6158812;23;20258;-79
2022/06/03 05:36:53;;;;;;;10.68;5.20;;;11.90;77.20;;;;;;6146362;23;20329;-79
2022/06/03 05:39:55;;;;;;;8.05;4.82;;;12.00;76.10;;;;;;6158440;23;20057;-79
2022/06/03 05:42:29;;;;;;;9.88;4.95;;;12.10;75.60;;;;;;6130209;23;20033;-79
2022/06/03 05:45:17;;;;;;;8.20;4.90;;;12.20;75.30;;;;;;6132011;23;20162;-79
2022/06/03 05:48:06;;;;;;;12.80;5.22;;;12.30;74.70;;;;;;6126330;23;20022;-79
2022/06/03 05:50:46;;;;;;;8.65;4.90;;;12.40;74.70;;;;;;6126287;23;20033;-79
2022/06/03 05:53:38;;;;;;;9.25;4.78;;;12.40;74.70;;;;;;6125085;23;20023;-79
2022/06/03 05:56:41;;;;;;;9.90;5.10;;;12.50;73.90;;;;;;6125411;23;20030;-79
2022/06/03 05:59:31;;;;;;;7.55;4.78;;;12.60;74.60;;;;;;6124924;23;20178;-79
2022/06/03 06:02:07;;;;;;;6.82;4.60;;;12.60;72.90;;;;;;6101419;23;20049;-79
2022/06/03 06:04:49;;;;;;;8.18;4.85;;;12.70;73.60;;;;;;6125207;23;20053;-79
2022/06/03 06:07:26;;;;;;;8.82;4.65;;;12.80;73.20;;;;;;6101771;23;20030;-79
2022/06/03 06:10:05;;;;;;;8.18;5.03;;;12.90;72.90;;;;;;6101652;23;20034;-80
2022/06/03 06:12:48;;;;;;;10.43;4.93;;;13.00;72.20;;;;;;6124783;23;20018;-79
2022/06/03 06:15:37;;;;;;;9.88;4.97;;;13.10;71.60;;;;;;6100837;23;20026;-79
2022/06/03 06:18:15;;;;;;;7.85;4.95;;;13.20;71.90;;;;;;6098374;23;20061;-79
2022/06/03 06:20:47;;;;;;;9.57;5.57;;;13.30;72.40;;;;;;6180224;23;20105;-79
2022/06/03 06:23:28;;;;;;;10.25;4.57;;;13.40;73.00;;;;;;6155996;23;20046;-79
2022/06/03 06:26:25;;;;;;;10.90;4.45;;;13.40;71.90;;;;;;6156338;23;20340;-79
2022/06/03 06:29:14;;;;;;;9.73;5.43;;;13.50;72.80;;;;;;6156755;23;20743;-79
2022/06/03 06:32:15;;;;;;;11.73;4.55;;;13.60;72.10;;;;;;6157232;23;20629;-79
2022/06/03 06:35:07;;;;;;;8.68;5.00;;;13.70;70.70;;;;;;6157133;23;20546;-79
2022/06/03 06:37:59;;;;;;;8.38;4.80;;;13.80;72.10;;;;;;6158369;23;20502;-79
2022/06/03 06:40:43;;;;;;;8.38;4.90;;;13.90;70.80;;;;;;6155501;23;20030;-79
2022/06/03 06:43:19;;;;;;;6.95;4.10;;;14.00;69.90;;;;;;6156561;23;20930;-79
2022/06/03 06:45:55;;;;;;;6.93;4.50;;;14.10;69.80;;;;;;6154956;23;20034;-79
2022/06/03 06:48:39;;;;;;;7.82;4.43;;;14.20;69.40;;;;;;6154951;23;20026;-79
2022/06/03 06:51:32;;;;;;;8.77;4.88;;;14.30;69.60;;;;;;6155637;23;20085;-79
2022/06/03 06:54:12;;;;;;;7.57;4.60;;;14.50;69.70;;;;;;6157607;23;20033;-79
2022/06/03 06:56:51;;;;;;;8.05;4.55;;;14.60;69.90;;;;;;6180989;23;20037;-79
2022/06/03 06:59:33;;;;;;;6.53;4.57;;;14.70;69.90;;;;;;6179379;23;20030;-79
2022/06/03 07:02:06;;;;;;;15.02;4.45;;;14.80;67.30;;;;;;6180473;23;20032;-79
2022/06/03 07:04:45;;;;;;;6.78;4.75;;;14.90;67.80;;;;;;6156099;23;20037;-79
2022/06/03 07:07:50;;;;;;;11.32;4.55;;;15.00;68.00;;;;;;6157050;23;20018;-79
2022/06/03 07:11:08;;;;;;;7.05;3.92;;;15.20;67.40;;;;;;6151615;23;20065;-80
2022/06/03 07:13:48;;;;;;;9.18;4.50;;;15.30;65.60;;;;;;6131362;23;20097;-80
2022/06/03 07:22:34;;;;;;;8.40;4.50;;;15.80;65.70;;;;;;6154343;23;20903;-81
2022/06/03 07:25:12;;;;;;;7.75;4.18;;;16.50;62.50;;;;;;6155549;23;20041;-81
2022/06/03 07:27:56;;;;;;;6.85;4.32;;;17.20;61.70;;;;;;6156191;23;20025;-80
2022/06/03 07:30:40;;;;;;;9.40;4.20;;;17.80;59.10;;;;;;6154643;23;20029;-81
2022/06/03 07:33:11;;;;;;;8.75;4.10;;;18.30;58.90;;;;;;6158908;23;20046;-81
2022/06/03 07:35:53;;;;;;;6.63;3.95;;;18.80;56.20;;;;;;6156461;23;20113;-81
2022/06/03 07:38:40;;;;;;;5.28;3.63;;;19.20;54.70;;;;;;6158633;23;20021;-79
2022/06/03 07:41:32;;;;;;;7.38;3.67;;;19.60;54.40;;;;;;6156268;23;20036;-80
2022/06/03 07:44:19;;;;;;;5.72;3.90;;;20.00;53.80;;;;;;6158951;23;20660;-80
2022/06/03 07:47:00;;;;;;;5.75;3.47;;;20.50;51.40;;;;;;6154506;23;20045;-79
2022/06/03 07:49:31;;;;;;;8.48;3.83;;;20.80;51.70;;;;;;6159919;23;20018;-79
2022/06/03 07:52:05;;;;;;;5.88;3.70;;;21.10;50.80;;;;;;6162169;23;20026;-79
2022/06/03 07:54:35;;;;;;;9.43;3.80;;;21.30;49.50;;;;;;6161065;23;20954;-79
2022/06/03 07:57:07;;;;;;;5.10;3.72;;;21.40;49.70;;;;;;6158408;23;20036;-80
2022/06/03 07:59:37;;;;;;;4.40;3.33;;;21.70;48.30;;;;;;6159177;23;20064;-80
2022/06/03 08:02:18;;;;;;;10.77;4.13;;;21.80;48.40;;;;;;6157812;23;20037;-80
2022/06/03 08:04:47;;;;;;;;;;;22.00;47.80;;;;;;6158585;23;20022;-80
2022/06/03 08:11:04;;;;;;;6.82;3.55;;;22.20;47.10;;;;;;6159356;23;20065;-80
2022/06/03 08:13:04;;;;;;;6.95;3.55;;;22.40;46.60;;;;;;6162285;23;20028;-80
2022/06/03 08:15:36;;;;;;;6.70;3.60;;;22.60;46.60;;;;;;6184299;23;20049;-79
2022/06/03 08:18:05;;;;;;;5.93;3.63;;;22.70;46.20;;;;;;6159489;23;20034;-80
2022/06/03 08:21:06;;;;;;;7.50;3.78;;;22.70;46.20;;;;;;6157454;23;20085;-80
2022/06/03 08:23:34;;;;;;;6.03;3.60;;;23.00;45.60;;;;;;6152467;23;20826;-80
2022/06/03 08:26:07;;;;;;;6.15;3.83;;;23.10;45.80;;;;;;6159075;23;20026;-81
2022/06/03 08:28:48;;;;;;;5.57;3.50;;;23.40;45.70;;;;;;6161415;23;20806;-80
2022/06/03 08:31:22;;;;;;;5.30;3.40;;;23.30;45.40;;;;;;6159446;23;20349;-80
2022/06/03 08:33:58;;;;;;;5.68;3.83;;;23.40;46.70;;;;;;6161029;23;20830;-81
2022/06/03 08:36:37;;;;;;;7.10;3.67;;;23.50;45.70;;;;;;6161174;23;20059;-80
2022/06/03 08:39:16;;;;;;;;;;;23.60;44.40;;;;;;6162567;23;20082;-80
2022/06/03 08:42:06;;;;;;;9.65;3.58;;;23.90;44.80;;;;;;6165877;23;19929;-80
2022/06/03 08:45:01;;;;;;;6.05;3.10;;;24.20;44.40;;;;;;6165596;23;20046;-80
2022/06/03 08:47:38;;;;;;;6.80;3.45;;;24.30;44.20;;;;;;6166389;23;21297;-80
2022/06/03 08:50:13;;;;;;;7.30;3.60;;;24.40;43.20;;;;;;6186310;23;20903;-82
2022/06/03 08:52:51;;;;;;;5.43;3.80;;;24.70;42.60;;;;;;6165694;23;20022;-80
2022/06/03 08:55:36;;;;;;;9.73;3.65;;;24.60;42.10;;;;;;6165279;23;20026;-80
2022/06/03 08:58:44;;;;;;;5.72;3.38;;;24.50;43.80;;;;;;6162811;23;20097;-80
2022/06/03 09:01:27;;;;;;;5.15;3.33;;;24.60;43.60;;;;;;6143037;23;20057;-81
2022/06/03 09:04:15;;;;;;;6.28;3.28;;;24.80;43.00;;;;;;6159327;23;20017;-81
2022/06/03 09:07:09;;;;;;;10.63;3.30;;;24.70;42.60;;;;;;6158831;23;20022;-80
2022/06/03 09:10:05;;;;;;;5.25;3.25;;;25.10;42.90;;;;;;6158583;23;20029;-84
2022/06/03 09:12:53;;;;;;;8.30;3.30;;;25.20;41.80;;;;;;6161702;23;20037;-82
2022/06/03 09:15:26;;;;;;;5.60;2.88;;;25.60;41.30;;;;;;6167045;23;20021;-82
2022/06/03 09:18:01;;;;;;;4.97;2.78;;;25.80;40.70;;;;;;6164199;23;20487;-81
2022/06/03 09:20:38;;;;;;;5.28;2.70;;;25.90;39.60;;;;;;6167411;23;20026;-82
2022/06/03 09:23:08;;;;;;;7.55;3.33;;;25.80;39.90;;;;;;6186065;23;20495;-76
2022/06/03 09:25:42;;;;;;;5.47;2.92;;;26.00;40.20;;;;;;6184534;23;20006;-82
2022/06/03 09:28:15;;;;;;;5.70;2.65;;;25.70;40.70;;;;;;6210115;23;20116;-82
2022/06/03 09:30:46;;;;;;;5.80;2.72;;;25.60;39.30;;;;;;6182498;23;20021;-82
2022/06/03 09:33:15;;;;;;;4.65;2.55;;;25.80;39.30;;;;;;6171137;23;20133;-79
2022/06/03 09:35:46;;;;;;;5.18;2.75;;;25.60;39.90;;;;;;6157788;23;20769;-78
2022/06/03 09:38:16;;;;;;;6.70;2.45;;;25.60;39.90;;;;;;6156622;23;20037;-78
2022/06/03 09:40:45;;;;;;;6.03;2.67;;;25.30;42.10;;;;;;6161437;23;20032;-75
2022/06/03 09:43:24;;;;;;;3.80;2.40;;;25.30;41.10;;;;;;6200835;23;20212;-76
2022/06/03 09:45:54;;;;;;;8.55;2.80;;;25.40;41.10;;;;;;6176408;23;20029;-76
2022/06/03 09:48:25;;;;;;;5.68;2.80;;;25.30;40.70;;;;;;6177022;23;20069;-76
2022/06/03 09:50:54;;;;;;;4.68;2.75;;;25.20;40.50;;;;;;6174786;23;20057;-75
2022/06/03 09:53:24;;;;;;;5.55;2.50;;;24.90;42.00;;;;;;6194158;23;20044;-76
2022/06/03 09:55:58;;;;;;;6.82;2.70;;;24.70;41.30;;;;;;6186674;23;20101;-71
2022/06/03 09:58:30;;;;;;;5.80;2.85;;;24.50;40.70;;;;;;6154858;23;20032;-72
2022/06/03 10:00:58;;;;;;;4.80;2.30;;;24.10;41.20;;;;;;6154188;23;20030;-71
2022/06/03 10:03:26;;;;;;;7.10;2.40;;;24.10;41.80;;;;;;6157164;23;20026;-71
2022/06/03 10:05:58;;;;;;;6.15;2.45;;;23.90;41.60;;;;;;6156603;23;20049;-71
2022/06/03 10:08:28;;;;;;;;;;;23.80;41.40;;;;;;6156347;23;20028;-71
2022/06/03 10:13:42;;;;;;;3.72;2.00;;;23.60;41.70;;;;;;6157628;23;20073;-71
2022/06/03 10:16:12;;;;;;;4.10;2.33;;;23.60;41.80;;;;;;6156795;23;20046;-71
2022/06/03 10:18:43;;;;;;;4.93;2.10;;;23.70;42.30;;;;;;6157100;23;20018;-71
2022/06/03 10:21:10;;;;;;;3.95;1.88;;;23.60;41.90;;;;;;6155791;23;20892;-70
2022/06/03 10:23:42;;;;;;;5.22;1.90;;;23.50;42.50;;;;;;6156056;23;20026;-71
2022/06/03 10:26:52;;;;;;;3.65;2.38;;;23.40;42.80;;;;;;6155266;23;20045;-71
2022/06/03 10:29:21;;;;;;;6.03;2.75;;;23.40;41.70;;;;;;6156043;23;20026;-71
2022/06/03 10:32:06;;;;;;;3.85;2.00;;;23.50;42.20;;;;;;6156751;23;20894;-71
2022/06/03 10:34:40;;;;;;;5.30;2.15;;;23.70;41.20;;;;;;6156941;23;20037;-71
2022/06/03 10:37:10;;;;;;;5.65;1.83;;;23.80;41.20;;;;;;6156278;23;20032;-70
2022/06/03 10:39:40;;;;;;;8.05;1.83;;;24.20;40.50;;;;;;6155711;23;20037;-71
2022/06/03 10:42:14;;;;;;;2.42;1.58;;;24.50;41.70;;;;;;6156997;23;20033;-71
2022/06/03 10:44:48;;;;;;;5.03;1.73;;;24.90;37.90;;;;;;6154820;23;20105;-71
2022/06/03 10:47:23;;;;;;;2.58;1.60;;;25.50;38.80;;;;;;6152439;23;20137;-71
2022/06/03 10:50:01;;;;;;;2.42;1.50;;;25.40;37.40;;;;;;6154761;23;20041;-71
2022/06/03 11:01:27;;;;;;;5.65;1.63;;;26.00;36.60;;;;;;6157067;23;20522;-71
2022/06/03 11:03:55;;;;;;;2.38;1.60;;;26.80;35.10;;;;;;6156373;23;20853;-71
2022/06/03 11:06:37;;;;;;;2.42;1.50;;;27.70;33.50;;;;;;6157890;23;20034;-72
2022/06/03 11:09:09;;;;;;;3.35;1.67;;;27.30;34.00;;;;;;6182081;23;20022;-71
2022/06/03 11:11:48;;;;;;;4.63;1.40;;;27.50;33.30;;;;;;6159013;23;20030;-71
2022/06/03 11:14:23;;;;;;;3.60;1.30;;;27.50;32.80;;;;;;6157210;23;20986;-72
2022/06/03 11:16:58;;;;;;;2.70;1.45;;;27.70;34.90;;;;;;6156107;23;20031;-72
2022/06/03 11:19:25;;;;;;;2.60;1.30;;;28.00;33.10;;;;;;6158174;23;20467;-71
2022/06/03 11:22:10;;;;;;;2.58;1.30;;;28.30;33.10;;;;;;6157912;23;20033;-72
2022/06/03 11:24:38;;;;;;;3.90;1.30;;;28.00;34.20;;;;;;6157555;23;20428;-71
2022/06/03 11:27:10;;;;;;;2.97;1.30;;;28.40;32.10;;;;;;6155911;23;20025;-72
2022/06/03 11:29:40;;;;;;;2.13;1.35;;;28.90;32.60;;;;;;6168411;23;20028;-80
2022/06/03 11:32:12;;;;;;;1.75;1.40;;;28.60;32.30;;;;;;6185000;23;20017;-80
2022/06/03 11:34:43;;;;;;;6.90;1.67;;;28.50;32.00;;;;;;6184866;23;20199;-80
2022/06/03 11:37:17;;;;;;;3.05;1.50;;;28.80;32.40;;;;;;6184556;23;20018;-82
2022/06/03 11:40:26;;;;;;;3.33;1.50;;;29.00;32.30;;;;;;6186928;23;20014;-82
2022/06/03 11:42:59;;;;;;;2.83;1.40;;;28.40;32.50;;;;;;6185970;23;20014;-81
2022/06/03 11:45:37;;;;;;;4.10;1.50;;;28.70;31.50;;;;;;6185290;23;20010;-82
2022/06/03 11:48:23;;;;;;;3.60;1.20;;;28.50;32.10;;;;;;6186299;23;20013;-82
2022/06/03 11:50:53;;;;;;;2.70;1.52;;;28.60;31.00;;;;;;6186347;23;20002;-81
2022/06/03 11:53:27;;;;;;;4.15;1.55;;;28.50;31.30;;;;;;6186877;23;20025;-81
2022/06/03 11:56:00;;;;;;;3.33;1.55;;;28.40;32.20;;;;;;6187080;23;20033;-81
2022/06/03 11:58:41;;;;;;;2.75;1.50;;;28.50;31.60;;;;;;6211192;23;20002;-83
2022/06/03 12:01:21;;;;;;;3.55;1.67;;;28.70;31.50;;;;;;6185650;23;20006;-81
2022/06/03 12:04:16;;;;;;;2.75;1.70;;;29.00;31.80;;;;;;6187111;23;20010;-81
2022/06/03 12:07:03;;;;;;;2.85;1.25;;;28.50;32.20;;;;;;6187083;23;20033;-82
2022/06/03 12:09:48;;;;;;;3.15;1.58;;;28.60;33.40;;;;;;6185584;23;20014;-82
2022/06/03 12:15:44;;;;;;;7.32;1.70;;;28.70;31.50;;;;;;6186863;23;20018;-81
2022/06/03 12:18:11;;;;;;;3.17;1.50;;;29.20;31.40;;;;;;6175590;23;20006;-82
2022/06/03 12:20:52;;;;;;;2.40;1.38;;;29.20;32.80;;;;;;6186970;23;20039;-81
2022/06/03 12:23:19;;;;;;;2.20;1.50;;;29.20;32.90;;;;;;6182742;23;20017;-82
2022/06/03 12:25:53;;;;;;;3.40;1.83;;;28.90;33.00;;;;;;6184769;23;20038;-81
2022/06/03 12:28:41;;;;;;;2.28;1.73;;;28.90;32.60;;;;;;6185062;23;20018;-82
2022/06/03 12:31:17;;;;;;;3.00;1.40;;;29.30;31.20;;;;;;6184565;23;20049;-82
2022/06/03 12:34:06;;;;;;;2.83;1.52;;;29.40;31.80;;;;;;6185577;23;20010;-82
2022/06/03 12:36:47;;;;;;;2.70;1.20;;;29.50;31.40;;;;;;6183542;23;20026;-81
2022/06/03 12:39:53;;;;;;;3.90;1.70;;;29.30;32.00;;;;;;6181597;23;20026;-81
2022/06/03 12:42:26;;;;;;;7.18;1.50;;;28.90;30.60;;;;;;6180964;23;20032;-81
2022/06/03 12:45:03;;;;;;;3.42;1.30;;;28.20;31.30;;;;;;6184367;23;20014;-81
2022/06/03 12:47:35;;;;;;;2.97;1.33;;;27.90;35.70;;;;;;6185053;23;20056;-81
2022/06/03 12:50:05;;;;;;;4.18;1.70;;;27.80;34.30;;;;;;6184806;23;20014;-82
2022/06/03 12:52:35;;;;;;;5.38;1.40;;;28.00;33.80;;;;;;6185519;23;20017;-82
2022/06/03 12:55:22;;;;;;;2.55;1.30;;;27.90;35.10;;;;;;6184358;23;20061;-82
2022/06/03 12:57:59;;;;;;;4.93;1.70;;;28.40;31.40;;;;;;6186591;23;20013;-81
2022/06/03 13:00:33;;;;;;;3.15;1.33;;;28.70;31.60;;;;;;6186699;23;20029;-81
2022/06/03 13:03:07;;;;;;;2.90;1.60;;;28.40;33.70;;;;;;6210871;23;20022;-81
2022/06/03 13:05:39;;;;;;;6.55;1.95;;;28.50;32.70;;;;;;6186687;23;20011;-81
2022/06/03 13:08:27;;;;;;;2.17;1.50;;;28.30;31.30;;;;;;6186086;23;20109;-81
2022/06/03 13:11:24;;;;;;;5.32;1.60;;;28.00;33.20;;;;;;6185808;23;20014;-81
2022/06/03 13:13:54;;;;;;;5.15;1.35;;;27.80;35.40;;;;;;6185068;23;20026;-81
2022/06/03 13:16:21;;;;;;;3.20;1.60;;;27.70;34.00;;;;;;6185240;23;20010;-81
2022/06/03 13:18:54;;;;;;;4.90;1.70;;;27.50;35.30;;;;;;6186583;23;20057;-81
2022/06/03 13:21:27;;;;;;;2.88;1.42;;;27.20;33.60;;;;;;6185061;23;20022;-80
2022/06/03 13:24:16;;;;;;;4.35;1.58;;;27.20;33.90;;;;;;6210609;23;20028;-81
2022/06/03 13:26:46;;;;;;;3.47;1.70;;;26.90;35.10;;;;;;6184795;23;20072;-81
2022/06/03 13:29:48;;;;;;;2.35;1.63;;;26.80;32.80;;;;;;6210178;23;20069;-81
2022/06/03 13:32:55;;;;;;;3.72;1.55;;;26.50;33.30;;;;;;6185679;23;20029;-81
2022/06/03 13:35:27;;;;;;;3.70;1.50;;;26.80;34.90;;;;;;6185090;23;20027;-81
2022/06/03 13:37:59;;;;;;;8.03;1.53;;;26.70;33.00;;;;;;6210483;23;20003;-81
2022/06/03 13:40:26;;;;;;;3.40;1.20;;;27.10;32.80;;;;;;6186517;23;20018;-80
2022/06/03 13:42:59;;;;;;;4.05;1.40;;;27.60;32.80;;;;;;6185640;23;20049;-81
2022/06/03 13:46:22;;;;;;;1.67;1.30;;;27.80;32.90;;;;;;6185450;23;20010;-81
2022/06/03 13:48:56;;;;;;;2.80;1.50;;;27.90;32.80;;;;;;6185242;23;20054;-81
2022/06/03 13:51:33;;;;;;;3.28;1.50;;;27.90;33.20;;;;;;6184500;23;20014;-81
2022/06/03 13:54:21;;;;;;;2.78;1.20;;;28.20;31.90;;;;;;6209450;23;20042;-81
2022/06/03 13:56:58;;;;;;;2.58;1.20;;;28.40;32.70;;;;;;6186069;23;20049;-81
2022/06/03 13:59:31;;;;;;;5.38;1.48;;;28.60;31.80;;;;;;6210335;23;20002;-81
2022/06/03 14:02:08;;;;;;;4.35;1.23;;;28.60;31.40;;;;;;6186010;23;20014;-81
2022/06/03 14:04:54;;;;;;;1.80;1.30;;;28.90;31.10;;;;;;6209989;23;20014;-81
2022/06/03 14:07:36;;;;;;;4.10;1.40;;;28.80;30.70;;;;;;6186113;23;20018;-80
2022/06/03 14:10:14;;;;;;;2.17;1.30;;;28.90;30.60;;;;;;6184854;23;20009;-81
2022/06/03 14:12:55;;;;;;;2.70;1.35;;;29.10;30.20;;;;;;6185343;23;20014;-81
2022/06/03 14:15:47;;;;;;;3.30;1.25;;;29.20;29.80;;;;;;6185876;23;20002;-81
2022/06/03 14:18:53;;;;;;;2.85;1.30;;;29.80;29.10;;;;;;6185017;23;20066;-82
2022/06/03 14:21:46;;;;;;;4.43;1.40;;;29.80;29.50;;;;;;6182284;23;20010;-82
2022/06/03 14:24:30;;;;;;;2.58;1.13;;;30.10;28.50;;;;;;6206779;23;20044;-81
2022/06/03 14:27:11;;;;;;;2.80;1.50;;;29.80;28.30;;;;;;6185748;23;20826;-82
2022/06/03 14:29:45;;;;;;;1.98;1.40;;;29.90;29.70;;;;;;6208853;23;20014;-81
2022/06/03 14:32:19;;;;;;;1.88;1.30;;;30.50;28.90;;;;;;6184797;23;20010;-81
2022/06/03 14:35:01;;;;;;;3.25;1.25;;;30.90;28.00;;;;;;6208769;23;20002;-80